Time;durP1;ratioP1;P1;durP2;ratioP2;P2;SDS_P1;SDS_P2;PMS_P1;PMS_P2;Temp;Humidity;BMP_temperature;BMP_pressure;BME280_temperature;BME280_humidity;BME280_pressure;Samples;Min_cycle;Max_cycle;Signal;HPM_P1;HPM_P2
2023/11/29 00:02:04;;;;;;;26.88;24.52;;;;;;;;;;5055722;28;20224;-78
2023/11/29 00:04:31;;;;;;;23.17;20.88;;;;;;;;;;5055062;28;20211;-79
2023/11/29 00:06:58;;;;;;;26.85;24.63;;;;;;;;;;5054284;28;20231;-79
2023/11/29 00:09:25;;;;;;;22.02;20.48;;;;;;;;;;5056448;28;20207;-80
2023/11/29 00:11:52;;;;;;;23.13;21.48;;;;;;;;;;5054875;28;20887;-80
2023/11/29 00:14:19;;;;;;;25.38;23.50;;;;;;;;;;5054388;28;20226;-78
2023/11/29 00:16:47;;;;;;;27.35;24.80;;;;;;;;;;5056427;28;20621;-79
2023/11/29 00:19:14;;;;;;;22.05;20.35;;;;;;;;;;5055401;28;20291;-80
2023/11/29 00:21:42;;;;;;;26.60;24.40;;;;;;;;;;5053619;28;20759;-79
2023/11/29 00:24:09;;;;;;;28.73;26.40;;;;;;;;;;5052741;28;20258;-78
2023/11/29 00:26:36;;;;;;;30.50;28.10;;;;;;;;;;5056691;28;20224;-79
2023/11/29 00:29:03;;;;;;;27.45;25.55;;;;;;;;;;5059048;28;20207;-80
2023/11/29 00:31:30;;;;;;;22.08;20.88;;;;;;;;;;5079235;28;20209;-79
2023/11/29 00:34:00;;;;;;;26.25;24.63;;;;;;;;;;5068652;28;20223;-80
2023/11/29 00:36:27;;;;;;;33.38;30.70;;;;;;;;;;5064361;28;20230;-79
2023/11/29 00:38:54;;;;;;;27.42;25.58;;;;;;;;;;5073952;28;20214;-78
2023/11/29 00:41:21;;;;;;;28.77;26.45;;;;;;;;;;5073277;28;20219;-79
2023/11/29 00:43:49;;;;;;;25.65;23.95;;;;;;;;;;5072271;28;20207;-79
2023/11/29 00:46:16;;;;;;;31.90;29.73;;;;;;;;;;5072444;28;22197;-77
2023/11/29 00:48:43;;;;;;;32.03;29.85;;;;;;;;;;5074029;28;20207;-79
2023/11/29 00:51:11;;;;;;;36.30;33.38;;;;;;;;;;5074073;28;20203;-78
2023/11/29 00:53:38;;;;;;;36.45;33.38;;;;;;;;;;5073291;28;20663;-79
2023/11/29 00:56:07;;;;;;;40.47;37.00;;;;;;;;;;5076073;28;20218;-80
2023/11/29 00:58:34;;;;;;;34.88;32.60;;;;;;;;;;5073637;28;20218;-79
2023/11/29 01:01:02;;;;;;;31.20;28.75;;;;;;;;;;5073786;28;20223;-78
2023/11/29 01:03:29;;;;;;;37.47;34.65;;;;;;;;;;5072843;28;20743;-79
2023/11/29 01:05:56;;;;;;;40.80;37.15;;;;;;;;;;5073742;28;20291;-79
2023/11/29 01:08:25;;;;;;;45.28;42.00;;;;;;;;;;5074131;28;20215;-79
2023/11/29 01:10:52;;;;;;;46.75;43.30;;;;;;;;;;5074538;28;20278;-78
2023/11/29 01:13:19;;;;;;;40.13;37.67;;;;;;;;;;5073315;28;20265;-80
2023/11/29 01:15:47;;;;;;;47.33;43.45;;;;;;;;;;5074106;28;20215;-78
2023/11/29 01:18:14;;;;;;;44.95;41.38;;;;;;;;;;5073630;28;20255;-79
2023/11/29 01:20:41;;;;;;;46.38;42.47;;;;;;;;;;5072593;28;20692;-80
2023/11/29 01:23:09;;;;;;;43.03;39.65;;;;;;;;;;5073578;28;20207;-78
2023/11/29 01:25:37;;;;;;;48.17;44.33;;;;;;;;;;5072942;28;20253;-79
2023/11/29 01:28:05;;;;;;;42.03;38.85;;;;;;;;;;5073927;28;20226;-77
2023/11/29 01:30:32;;;;;;;46.30;42.03;;;;;;;;;;5065407;28;20687;-79
2023/11/29 01:32:59;;;;;;;42.13;39.42;;;;;;;;;;5051342;28;20591;-78
2023/11/29 01:35:26;;;;;;;47.15;43.30;;;;;;;;;;5050903;28;20200;-77
2023/11/29 01:37:53;;;;;;;54.30;49.85;;;;;;;;;;5051553;28;20232;-77
2023/11/29 01:40:21;;;;;;;46.13;42.25;;;;;;;;;;5051023;28;20737;-76
2023/11/29 01:42:49;;;;;;;52.00;47.38;;;;;;;;;;5051488;28;20270;-77
2023/11/29 01:45:16;;;;;;;47.03;43.38;;;;;;;;;;5050691;28;20639;-78
2023/11/29 01:47:44;;;;;;;49.95;45.72;;;;;;;;;;5051329;28;20282;-77
2023/11/29 01:50:12;;;;;;;51.95;47.22;;;;;;;;;;5051192;28;20296;-77
2023/11/29 01:52:39;;;;;;;49.25;44.92;;;;;;;;;;5051246;28;20208;-78
2023/11/29 01:55:09;;;;;;;54.38;49.35;;;;;;;;;;5050650;28;20219;-78
2023/11/29 01:57:36;;;;;;;52.25;47.85;;;;;;;;;;5051315;28;20235;-77
2023/11/29 02:00:05;;;;;;;50.40;45.97;;;;;;;;;;5050421;28;20212;-77
2023/11/29 02:02:32;;;;;;;49.92;46.13;;;;;;;;;;5051273;28;20228;-78
2023/11/29 02:05:00;;;;;;;52.97;48.47;;;;;;;;;;5050299;28;20640;-77
2023/11/29 02:07:27;;;;;;;50.80;46.90;;;;;;;;;;5051013;28;20307;-78
2023/11/29 02:09:54;;;;;;;50.17;46.40;;;;;;;;;;5053807;28;20298;-78
2023/11/29 02:12:21;;;;;;;53.47;48.75;;;;;;;;;;5054203;28;20721;-78
2023/11/29 02:14:48;;;;;;;52.47;48.50;;;;;;;;;;5053647;28;20623;-77
2023/11/29 02:17:17;;;;;;;51.55;47.90;;;;;;;;;;5054672;28;20223;-78
2023/11/29 02:19:44;;;;;;;52.20;48.00;;;;;;;;;;5054486;28;20223;-78
2023/11/29 02:22:11;;;;;;;55.20;50.78;;;;;;;;;;5074164;28;20235;-77
2023/11/29 02:24:41;;;;;;;51.42;48.00;;;;;;;;;;5073697;28;20203;-79
2023/11/29 02:27:10;;;;;;;55.70;51.28;;;;;;;;;;5073389;28;20224;-78
2023/11/29 02:29:38;;;;;;;55.58;51.10;;;;;;;;;;5073815;28;20672;-79
2023/11/29 02:32:06;;;;;;;55.83;51.30;;;;;;;;;;5074054;28;20731;-77
2023/11/29 02:34:35;;;;;;;52.88;48.60;;;;;;;;;;5073917;28;20210;-78
2023/11/29 02:37:02;;;;;;;57.58;52.88;;;;;;;;;;5073957;28;20231;-77
2023/11/29 02:39:29;;;;;;;59.05;53.90;;;;;;;;;;5073763;28;20555;-78
2023/11/29 02:41:56;;;;;;;61.13;55.78;;;;;;;;;;5073644;28;20223;-77
2023/11/29 02:44:25;;;;;;;64.28;57.83;;;;;;;;;;5073865;28;20222;-78
2023/11/29 02:46:52;;;;;;;58.67;53.72;;;;;;;;;;5074460;28;20223;-78
2023/11/29 02:49:19;;;;;;;56.58;51.83;;;;;;;;;;5074451;28;20207;-78
2023/11/29 02:51:46;;;;;;;59.67;51.03;;;;;;;;;;5074247;28;20207;-78
2023/11/29 02:54:13;;;;;;;63.45;58.08;;;;;;;;;;5073878;28;20567;-78
2023/11/29 02:56:40;;;;;;;62.45;56.80;;;;;;;;;;5073607;28;20609;-79
2023/11/29 02:59:07;;;;;;;58.45;54.13;;;;;;;;;;5062885;28;20216;-78
2023/11/29 03:01:36;;;;;;;62.13;56.80;;;;;;;;;;5065186;28;20298;-78
2023/11/29 03:04:03;;;;;;;58.70;53.90;;;;;;;;;;5073467;28;20609;-78
2023/11/29 03:06:30;;;;;;;62.95;58.15;;;;;;;;;;5056872;28;20258;-79
2023/11/29 03:08:57;;;;;;;60.55;56.20;;;;;;;;;;5053701;28;20212;-77
2023/11/29 03:11:24;;;;;;;62.05;56.75;;;;;;;;;;5053068;28;20643;-80
2023/11/29 03:13:51;;;;;;;59.42;54.75;;;;;;;;;;5052962;28;20231;-78
2023/11/29 03:16:18;;;;;;;59.65;55.40;;;;;;;;;;5053848;28;20232;-78
2023/11/29 03:18:46;;;;;;;60.20;55.13;;;;;;;;;;5052902;28;20676;-78
2023/11/29 03:21:13;;;;;;;61.70;56.30;;;;;;;;;;5053946;28;20219;-78
2023/11/29 03:23:40;;;;;;;50.13;47.30;;;;;;;;;;5053796;28;20293;-79
2023/11/29 03:26:09;;;;;;;52.70;48.75;;;;;;;;;;5053425;28;20211;-79
2023/11/29 03:28:37;;;;;;;52.50;49.53;;;;;;;;;;5054060;28;20204;-78
2023/11/29 03:31:04;;;;;;;53.10;49.15;;;;;;;;;;5054561;28;20196;-78
2023/11/29 03:33:31;;;;;;;62.58;57.22;;;;;;;;;;5054163;28;20207;-79
2023/11/29 03:36:00;;;;;;;60.45;55.53;;;;;;;;;;5053501;28;20207;-78
2023/11/29 03:38:27;;;;;;;59.10;55.03;;;;;;;;;;5054802;28;20220;-79
2023/11/29 03:40:54;;;;;;;58.40;54.67;;;;;;;;;;5053634;28;20212;-77
2023/11/29 03:43:21;;;;;;;51.85;48.78;;;;;;;;;;5053434;28;20583;-79
2023/11/29 03:45:48;;;;;;;59.25;54.58;;;;;;;;;;5052860;28;20624;-77
2023/11/29 03:48:15;;;;;;;52.65;49.65;;;;;;;;;;5054652;28;20667;-78
2023/11/29 03:50:43;;;;;;;51.22;48.15;;;;;;;;;;5055804;28;20283;-77
2023/11/29 03:53:11;;;;;;;48.92;46.03;;;;;;;;;;5052564;28;20208;-77
2023/11/29 03:55:38;;;;;;;53.03;49.72;;;;;;;;;;5052700;28;20208;-76
2023/11/29 03:58:06;;;;;;;52.13;48.67;;;;;;;;;;5052961;28;20256;-78
2023/11/29 04:00:33;;;;;;;49.03;46.17;;;;;;;;;;5052299;28;20208;-77
2023/11/29 04:03:00;;;;;;;54.20;51.15;;;;;;;;;;5056111;28;20257;-77
2023/11/29 04:05:27;;;;;;;53.92;50.78;;;;;;;;;;5062364;28;20548;-77
2023/11/29 04:07:54;;;;;;;58.50;54.53;;;;;;;;;;5074818;28;20365;-78
2023/11/29 04:10:22;;;;;;;58.65;54.80;;;;;;;;;;5074798;28;20265;-79
2023/11/29 04:12:49;;;;;;;66.88;61.10;;;;;;;;;;5072370;28;20215;-78
2023/11/29 04:15:16;;;;;;;59.67;55.58;;;;;;;;;;5071965;28;20199;-78
2023/11/29 04:17:43;;;;;;;55.10;52.13;;;;;;;;;;5072473;28;20223;-78
2023/11/29 04:20:11;;;;;;;66.45;62.22;;;;;;;;;;5075060;28;20211;-77
2023/11/29 04:22:38;;;;;;;59.28;56.20;;;;;;;;;;5072777;28;20220;-78
2023/11/29 04:25:06;;;;;;;61.33;56.83;;;;;;;;;;5071628;28;20698;-78
2023/11/29 04:27:34;;;;;;;63.67;58.72;;;;;;;;;;5071652;28;20231;-77
2023/11/29 04:30:02;;;;;;;66.55;61.28;;;;;;;;;;5073544;28;20212;-78
2023/11/29 04:32:29;;;;;;;65.40;61.00;;;;;;;;;;5073521;28;20210;-79
2023/11/29 04:34:56;;;;;;;56.13;52.58;;;;;;;;;;5072443;28;20214;-79
2023/11/29 04:37:23;;;;;;;51.05;48.28;;;;;;;;;;5073036;28;20258;-77
2023/11/29 04:39:50;;;;;;;58.10;54.45;;;;;;;;;;5072515;28;20214;-78
2023/11/29 04:42:17;;;;;;;61.80;57.40;;;;;;;;;;5072697;28;20280;-79
2023/11/29 04:44:47;;;;;;;60.17;56.33;;;;;;;;;;5072562;28;20200;-77
2023/11/29 04:47:15;;;;;;;57.35;53.78;;;;;;;;;;5071950;28;20243;-77
2023/11/29 04:49:42;;;;;;;64.28;60.25;;;;;;;;;;5071411;28;20204;-78
2023/11/29 04:52:09;;;;;;;59.47;55.67;;;;;;;;;;5071898;28;20203;-77
2023/11/29 04:54:36;;;;;;;58.25;53.47;;;;;;;;;;5071517;28;20214;-77
2023/11/29 04:57:03;;;;;;;65.85;59.95;;;;;;;;;;5071827;28;20617;-78
2023/11/29 04:59:30;;;;;;;50.58;47.58;;;;;;;;;;5071962;28;20187;-77
2023/11/29 05:01:59;;;;;;;60.58;56.35;;;;;;;;;;5071829;28;20207;-77
2023/11/29 05:04:26;;;;;;;61.95;58.15;;;;;;;;;;5071215;28;20207;-78
2023/11/29 05:06:53;;;;;;;62.90;58.50;;;;;;;;;;5071264;28;20227;-77
2023/11/29 05:09:21;;;;;;;58.70;55.08;;;;;;;;;;5071512;28;20854;-78
2023/11/29 05:11:48;;;;;;;63.80;59.30;;;;;;;;;;5071488;28;20214;-78
2023/11/29 05:14:15;;;;;;;53.15;50.15;;;;;;;;;;5070612;28;20237;-77
2023/11/29 05:16:42;;;;;;;58.60;55.08;;;;;;;;;;5071300;28;20314;-76
2023/11/29 05:19:10;;;;;;;58.15;54.30;;;;;;;;;;5073011;28;20203;-82
2023/11/29 05:21:37;;;;;;;67.13;61.65;;;;;;;;;;5076194;28;20261;-79
2023/11/29 05:24:05;;;;;;;54.05;51.00;;;;;;;;;;5072783;28;20627;-80
2023/11/29 05:26:32;;;;;;;58.30;54.35;;;;;;;;;;5073988;28;20227;-79
2023/11/29 05:29:00;;;;;;;57.60;53.47;;;;;;;;;;5072997;28;20298;-77
2023/11/29 05:34:32;;;;;;;58.10;53.92;;;;;;;;;;5053634;28;20268;-77
2023/11/29 05:36:59;;;;;;;58.42;55.13;;;;;;;;;;5070732;28;20230;-77
2023/11/29 05:39:26;;;;;;;58.83;55.08;;;;;;;;;;5050933;28;20608;-77
2023/11/29 05:41:53;;;;;;;58.40;54.83;;;;;;;;;;5052566;28;20207;-78
2023/11/29 05:44:20;;;;;;;57.75;54.65;;;;;;;;;;5068314;28;20308;-78
2023/11/29 05:46:47;;;;;;;57.60;54.30;;;;;;;;;;5075681;28;20222;-78
2023/11/29 05:49:14;;;;;;;67.72;63.00;;;;;;;;;;5075952;28;20720;-77
2023/11/29 05:51:42;;;;;;;58.80;55.25;;;;;;;;;;5075054;28;20203;-77
2023/11/29 05:54:09;;;;;;;69.55;64.25;;;;;;;;;;5074371;28;20235;-78
2023/11/29 05:56:36;;;;;;;64.30;58.97;;;;;;;;;;5074465;28;20703;-77
2023/11/29 05:59:05;;;;;;;62.30;58.55;;;;;;;;;;5074949;28;20199;-78
2023/11/29 06:01:32;;;;;;;60.13;56.53;;;;;;;;;;5074911;28;20207;-78
2023/11/29 06:03:59;;;;;;;67.25;62.33;;;;;;;;;;5073707;28;20544;-78
2023/11/29 06:06:26;;;;;;;64.95;60.80;;;;;;;;;;5075091;28;20233;-77
2023/11/29 06:08:55;;;;;;;70.82;65.63;;;;;;;;;;5075609;28;20211;-80
2023/11/29 06:11:22;;;;;;;63.60;59.75;;;;;;;;;;5076787;28;20589;-79
2023/11/29 06:13:50;;;;;;;59.90;56.33;;;;;;;;;;5074966;28;20234;-80
2023/11/29 06:16:17;;;;;;;64.88;60.53;;;;;;;;;;5076098;28;20258;-78
2023/11/29 06:18:44;;;;;;;58.13;53.88;;;;;;;;;;5074094;28;20674;-79
2023/11/29 06:21:12;;;;;;;58.38;54.92;;;;;;;;;;5056488;28;20215;-79
2023/11/29 06:23:39;;;;;;;57.13;53.92;;;;;;;;;;5056228;28;20216;-80
2023/11/29 06:26:07;;;;;;;63.28;58.90;;;;;;;;;;5056841;28;20208;-79
2023/11/29 06:28:40;;;;;;;61.50;57.95;;;;;;;;;;5056753;28;20223;-79
2023/11/29 06:31:07;;;;;;;67.07;63.10;;;;;;;;;;5055706;28;20238;-79
2023/11/29 06:33:34;;;;;;;66.53;62.05;;;;;;;;;;5055133;28;20680;-79
2023/11/29 06:36:02;;;;;;;63.92;59.67;;;;;;;;;;5056888;28;20224;-78
2023/11/29 06:38:31;;;;;;;65.53;61.35;;;;;;;;;;5057226;28;20200;-79
2023/11/29 06:40:59;;;;;;;62.70;59.13;;;;;;;;;;5058300;28;20219;-79
2023/11/29 06:43:27;;;;;;;58.78;55.58;;;;;;;;;;5058801;28;20565;-80
2023/11/29 06:45:54;;;;;;;64.40;60.70;;;;;;;;;;5057772;28;20234;-79
2023/11/29 06:48:21;;;;;;;66.13;61.53;;;;;;;;;;5058835;28;20188;-80
2023/11/29 06:50:49;;;;;;;69.28;64.47;;;;;;;;;;5059072;28;20208;-81
2023/11/29 06:53:16;;;;;;;65.07;61.08;;;;;;;;;;5058330;28;20699;-80
2023/11/29 06:55:43;;;;;;;63.05;59.35;;;;;;;;;;5057782;28;20228;-79
2023/11/29 06:58:10;;;;;;;62.83;59.42;;;;;;;;;;5071703;28;20223;-80
2023/11/29 07:00:38;;;;;;;70.97;66.28;;;;;;;;;;5076829;28;20200;-79
2023/11/29 07:03:05;;;;;;;62.95;58.85;;;;;;;;;;5075299;28;20220;-79
2023/11/29 07:05:32;;;;;;;65.80;61.85;;;;;;;;;;5058056;28;20274;-79
2023/11/29 07:07:59;;;;;;;64.10;60.20;;;;;;;;;;5069294;28;20228;-80
2023/11/29 07:10:27;;;;;;;62.72;58.85;;;;;;;;;;5078275;28;20208;-80
2023/11/29 07:12:55;;;;;;;63.85;59.75;;;;;;;;;;5078071;28;20548;-80
2023/11/29 07:15:22;;;;;;;64.60;60.20;;;;;;;;;;5078922;28;20208;-79
2023/11/29 07:17:51;;;;;;;63.45;59.45;;;;;;;;;;5079029;28;20348;-80
2023/11/29 07:20:18;;;;;;;66.63;62.50;;;;;;;;;;5078303;28;20237;-80
2023/11/29 07:22:45;;;;;;;63.97;60.28;;;;;;;;;;5078739;28;20228;-80
2023/11/29 07:25:13;;;;;;;62.30;58.85;;;;;;;;;;5074893;28;20694;-79
2023/11/29 07:27:40;;;;;;;68.57;63.97;;;;;;;;;;5069034;28;20251;-77
2023/11/29 07:30:08;;;;;;;67.65;63.53;;;;;;;;;;5073834;28;20211;-77
2023/11/29 07:32:35;;;;;;;68.07;63.42;;;;;;;;;;5078177;28;20207;-81
2023/11/29 07:35:04;;;;;;;63.97;60.15;;;;;;;;;;5078130;28;20215;-80
2023/11/29 07:37:31;;;;;;;70.38;65.40;;;;;;;;;;5076323;28;20749;-77
2023/11/29 07:39:58;;;;;;;62.03;58.50;;;;;;;;;;5073449;28;20192;-78
2023/11/29 07:42:25;;;;;;;63.42;59.72;;;;;;;;;;5073736;28;20238;-78
2023/11/29 07:44:52;;;;;;;68.45;64.00;;;;;;;;;;5072615;28;20617;-77
2023/11/29 07:47:20;;;;;;;67.93;63.33;;;;;;;;;;5073590;28;20235;-78
2023/11/29 07:49:47;;;;;;;69.32;64.45;;;;;;;;;;5073498;28;20211;-77
2023/11/29 07:52:16;;;;;;;66.25;62.40;;;;;;;;;;5073140;28;20297;-78
2023/11/29 07:54:43;;;;;;;71.38;66.65;;;;;;;;;;5072448;28;20215;-77
2023/11/29 07:57:09;;;;;;;71.15;66.57;;;;;;;;;;5072960;28;20711;-77
2023/11/29 07:59:37;;;;;;;71.75;66.28;;;;;;;;;;5075972;28;20203;-81
2023/11/29 08:02:04;;;;;;;63.58;60.25;;;;;;;;;;5081971;28;20210;-80
2023/11/29 08:04:31;;;;;;;73.47;68.25;;;;;;;;;;5081067;28;20239;-80
2023/11/29 08:06:58;;;;;;;66.18;62.08;;;;;;;;;;5081767;28;20346;-82
2023/11/29 08:09:26;;;;;;;60.28;56.45;;;;;;;;;;5082278;28;20203;-81
2023/11/29 08:11:54;;;;;;;70.05;65.03;;;;;;;;;;5081583;28;20220;-82
2023/11/29 08:14:21;;;;;;;64.20;60.03;;;;;;;;;;5081800;28;20203;-82
2023/11/29 08:16:48;;;;;;;62.90;59.05;;;;;;;;;;5082765;28;20224;-82
2023/11/29 08:19:15;;;;;;;65.32;60.70;;;;;;;;;;5082593;28;20196;-81
2023/11/29 08:21:43;;;;;;;65.90;61.47;;;;;;;;;;5082362;28;20207;-82
2023/11/29 08:24:11;;;;;;;63.97;60.28;;;;;;;;;;5081759;28;20224;-82
2023/11/29 08:26:40;;;;;;;61.95;57.85;;;;;;;;;;5082847;28;20234;-82
2023/11/29 08:29:07;;;;;;;60.30;56.50;;;;;;;;;;5082154;28;20214;-83
2023/11/29 08:31:34;;;;;;;68.32;63.08;;;;;;;;;;5082641;28;20207;-81
2023/11/29 08:34:01;;;;;;;66.93;62.28;;;;;;;;;;5059892;28;20295;-80
2023/11/29 08:36:29;;;;;;;67.90;62.70;;;;;;;;;;5058323;28;20233;-80
2023/11/29 08:38:56;;;;;;;63.38;59.10;;;;;;;;;;5057337;28;20652;-79
2023/11/29 08:41:23;;;;;;;65.65;61.88;;;;;;;;;;5058434;28;20204;-80
2023/11/29 08:43:51;;;;;;;58.65;55.35;;;;;;;;;;5057182;28;20239;-82
2023/11/29 08:46:18;;;;;;;65.78;61.53;;;;;;;;;;5057942;28;20224;-82
2023/11/29 08:48:45;;;;;;;76.13;70.75;;;;;;;;;;5058617;28;20675;-81
2023/11/29 08:51:16;;;;;;;63.25;59.22;;;;;;;;;;5056557;28;20204;-82
2023/11/29 08:53:43;;;;;;;63.78;59.67;;;;;;;;;;5059855;28;20938;-83
2023/11/29 08:56:15;;;;;;;66.32;61.83;;;;;;;;;;5061101;28;21021;-82
2023/11/29 08:58:42;;;;;;;62.55;58.63;;;;;;;;;;5058632;28;20227;-80
2023/11/29 09:01:12;;;;;;;65.43;61.13;;;;;;;;;;5056963;28;20231;-80
2023/11/29 09:03:40;;;;;;;68.90;64.65;;;;;;;;;;5059154;28;20223;-83
2023/11/29 09:06:07;;;;;;;67.15;62.63;;;;;;;;;;5077883;28;20216;-83
2023/11/29 09:08:35;;;;;;;65.22;60.92;;;;;;;;;;5081279;28;20243;-82
2023/11/29 09:11:02;;;;;;;64.85;60.88;;;;;;;;;;5079406;28;20214;-81
2023/11/29 09:13:30;;;;;;;72.53;67.30;;;;;;;;;;5076999;28;20317;-79
2023/11/29 09:15:57;;;;;;;68.35;63.95;;;;;;;;;;5076060;28;20196;-80
2023/11/29 09:18:26;;;;;;;67.72;63.00;;;;;;;;;;5077077;28;20236;-78
2023/11/29 09:20:53;;;;;;;70.32;66.03;;;;;;;;;;5077145;28;20221;-80
2023/11/29 09:23:20;;;;;;;63.85;60.45;;;;;;;;;;5077309;28;20211;-82
2023/11/29 09:25:47;;;;;;;79.13;73.50;;;;;;;;;;5078425;28;20218;-82
2023/11/29 09:28:16;;;;;;;75.68;69.68;;;;;;;;;;5079990;28;20238;-86
2023/11/29 09:30:44;;;;;;;75.40;69.85;;;;;;;;;;5075543;28;20267;-84
2023/11/29 09:33:12;;;;;;;63.05;59.28;;;;;;;;;;5060594;28;20208;-87
2023/11/29 09:35:42;;;;;;;70.20;65.18;;;;;;;;;;5060478;28;20684;-89
2023/11/29 09:38:10;;;;;;;64.35;60.50;;;;;;;;;;5057341;28;20631;-89
2023/11/29 09:40:37;;;;;;;71.53;66.88;;;;;;;;;;5061687;28;20208;-86
2023/11/29 09:43:04;;;;;;;66.28;61.95;;;;;;;;;;5060558;28;20215;-86
2023/11/29 09:45:31;;;;;;;72.20;67.40;;;;;;;;;;5057114;28;20239;-88
2023/11/29 09:47:59;;;;;;;67.13;62.85;;;;;;;;;;5057019;28;20228;-88
2023/11/29 09:50:27;;;;;;;67.00;63.13;;;;;;;;;;5057246;28;20272;-88
2023/11/29 09:52:57;;;;;;;74.32;69.55;;;;;;;;;;5058068;28;20228;-87
2023/11/29 09:55:25;;;;;;;66.35;62.25;;;;;;;;;;5057905;28;20236;-89
2023/11/29 09:57:53;;;;;;;70.30;66.05;;;;;;;;;;5055701;28;20603;-88
2023/11/29 10:00:20;;;;;;;72.72;67.85;;;;;;;;;;5060570;28;20208;-86
2023/11/29 10:02:47;;;;;;;66.93;63.45;;;;;;;;;;5059423;28;20212;-89
2023/11/29 10:05:14;;;;;;;71.43;66.97;;;;;;;;;;5058222;28;20228;-86
2023/11/29 10:07:47;;;;;;;62.50;58.75;;;;;;;;;;5058283;28;20228;-86
2023/11/29 10:10:15;;;;;;;64.65;60.60;;;;;;;;;;5057254;28;20962;-86
2023/11/29 10:12:44;;;;;;;65.15;61.13;;;;;;;;;;5057409;28;20215;-86
2023/11/29 10:15:11;;;;;;;61.42;57.78;;;;;;;;;;5060531;28;20204;-86
2023/11/29 10:17:40;;;;;;;61.42;57.88;;;;;;;;;;5061188;28;20288;-87
2023/11/29 10:20:08;;;;;;;59.38;55.58;;;;;;;;;;5058943;28;20208;-85
2023/11/29 10:22:35;;;;;;;62.17;58.45;;;;;;;;;;5059464;28;20209;-85
2023/11/29 10:25:17;;;;;;;63.10;58.95;;;;;;;;;;5059793;28;20220;-85
2023/11/29 10:27:45;;;;;;;55.60;52.88;;;;;;;;;;5056947;28;20266;-85
2023/11/29 10:30:13;;;;;;;61.55;58.53;;;;;;;;;;5068811;28;20276;-85
2023/11/29 10:32:41;;;;;;;59.75;56.40;;;;;;;;;;5060609;28;20204;-81
2023/11/29 10:35:12;;;;;;;59.50;55.90;;;;;;;;;;5059673;28;20299;-85
2023/11/29 10:37:41;;;;;;;54.92;52.33;;;;;;;;;;5059909;28;20220;-86
2023/11/29 10:40:10;;;;;;;65.30;61.80;;;;;;;;;;5061319;28;20196;-86
2023/11/29 10:42:40;;;;;;;61.45;57.90;;;;;;;;;;5061081;28;20702;-86
2023/11/29 10:45:08;;;;;;;61.50;58.05;;;;;;;;;;5061013;28;20634;-85
2023/11/29 10:47:36;;;;;;;54.33;50.97;;;;;;;;;;5062086;28;20228;-84
2023/11/29 10:50:04;;;;;;;49.83;47.08;;;;;;;;;;5061655;28;20623;-85
2023/11/29 10:52:32;;;;;;;46.97;44.25;;;;;;;;;;5068015;28;20204;-85
2023/11/29 10:54:59;;;;;;;55.35;51.60;;;;;;;;;;5080614;28;20906;-85
2023/11/29 10:57:28;;;;;;;50.33;47.50;;;;;;;;;;5067192;28;20235;-81
2023/11/29 10:59:59;;;;;;;50.45;47.50;;;;;;;;;;5070901;28;20210;-85
2023/11/29 11:02:29;;;;;;;47.47;44.92;;;;;;;;;;5081766;28;20235;-85
2023/11/29 11:05:05;;;;;;;48.63;45.72;;;;;;;;;;5081261;28;20323;-85
2023/11/29 11:07:40;;;;;;;51.35;48.40;;;;;;;;;;5081579;28;20222;-85
2023/11/29 11:10:09;;;;;;;45.33;42.70;;;;;;;;;;5081518;28;20195;-85
2023/11/29 11:12:37;;;;;;;47.55;44.80;;;;;;;;;;5080812;28;20218;-84
2023/11/29 11:15:10;;;;;;;50.83;48.08;;;;;;;;;;5080421;28;20195;-85
2023/11/29 11:17:38;;;;;;;53.80;50.47;;;;;;;;;;5081113;28;20257;-85
2023/11/29 11:20:06;;;;;;;55.63;52.22;;;;;;;;;;5071126;28;20298;-82
2023/11/29 11:22:40;;;;;;;53.50;50.20;;;;;;;;;;5062533;28;20295;-83
2023/11/29 11:25:10;;;;;;;56.00;52.50;;;;;;;;;;5061359;28;20220;-84
2023/11/29 11:27:39;;;;;;;58.28;55.00;;;;;;;;;;5060824;28;20223;-83
2023/11/29 11:30:20;;;;;;;57.97;54.47;;;;;;;;;;5061399;28;20197;-82
2023/11/29 11:32:49;;;;;;;56.03;52.72;;;;;;;;;;5059189;28;20204;-84
2023/11/29 11:35:33;;;;;;;58.95;54.22;;;;;;;;;;5058384;28;20664;-82
2023/11/29 11:38:00;;;;;;;53.88;50.67;;;;;;;;;;5058644;28;20248;-82
2023/11/29 11:40:28;;;;;;;56.40;53.05;;;;;;;;;;5059283;28;20615;-82
2023/11/29 11:42:56;;;;;;;52.67;49.78;;;;;;;;;;5059059;28;20200;-84
2023/11/29 11:45:23;;;;;;;54.08;50.80;;;;;;;;;;5057863;28;20230;-83
2023/11/29 11:47:52;;;;;;;57.97;54.78;;;;;;;;;;5058649;28;20224;-83
2023/11/29 11:50:19;;;;;;;54.67;51.35;;;;;;;;;;5058867;28;20330;-82
2023/11/29 11:52:46;;;;;;;62.40;58.13;;;;;;;;;;5058202;28;20212;-83
2023/11/29 11:55:15;;;;;;;66.32;62.33;;;;;;;;;;5056040;28;20585;-79
2023/11/29 11:57:43;;;;;;;62.58;58.33;;;;;;;;;;5055619;28;20236;-79
2023/11/29 12:00:11;;;;;;;58.83;55.53;;;;;;;;;;5058060;28;20578;-79
2023/11/29 12:02:39;;;;;;;67.18;62.97;;;;;;;;;;5074773;28;20195;-79
2023/11/29 12:05:08;;;;;;;68.63;64.22;;;;;;;;;;5074696;28;20234;-79
2023/11/29 12:07:39;;;;;;;62.03;58.08;;;;;;;;;;5075929;28;20234;-80
2023/11/29 12:10:06;;;;;;;67.05;62.47;;;;;;;;;;5070462;28;20265;-79
2023/11/29 12:12:33;;;;;;;62.15;58.95;;;;;;;;;;5069719;28;20211;-80
2023/11/29 12:15:02;;;;;;;60.78;57.03;;;;;;;;;;5055264;28;20242;-78
2023/11/29 12:17:33;;;;;;;59.83;56.67;;;;;;;;;;5074339;28;20265;-80
2023/11/29 12:20:00;;;;;;;57.95;54.63;;;;;;;;;;5075179;28;20219;-80
2023/11/29 12:22:28;;;;;;;50.85;48.00;;;;;;;;;;5059364;28;20627;-79
2023/11/29 12:24:57;;;;;;;61.28;57.58;;;;;;;;;;5060634;28;20219;-85
2023/11/29 12:27:26;;;;;;;60.08;56.47;;;;;;;;;;5059098;28;20271;-86
2023/11/29 12:29:56;;;;;;;62.42;58.63;;;;;;;;;;5059111;28;20218;-88
2023/11/29 12:32:23;;;;;;;58.38;54.78;;;;;;;;;;5059804;28;20219;-86
2023/11/29 12:34:50;;;;;;;56.05;52.72;;;;;;;;;;5058696;28;20200;-86
2023/11/29 12:37:17;;;;;;;56.33;53.17;;;;;;;;;;5059575;28;20231;-89
2023/11/29 12:39:45;;;;;;;52.85;49.15;;;;;;;;;;5059033;28;20287;-86
2023/11/29 12:42:12;;;;;;;52.10;49.10;;;;;;;;;;5059526;28;20211;-84
2023/11/29 12:44:40;;;;;;;50.55;47.58;;;;;;;;;;5060436;28;20278;-87
2023/11/29 12:47:08;;;;;;;50.40;47.88;;;;;;;;;;5068500;28;20222;-87
2023/11/29 12:49:35;;;;;;;49.50;46.80;;;;;;;;;;5061880;28;20204;-85
2023/11/29 12:52:03;;;;;;;40.75;38.65;;;;;;;;;;5063246;28;20291;-84
2023/11/29 12:54:31;;;;;;;38.47;36.60;;;;;;;;;;5076871;28;20271;-85
2023/11/29 12:56:59;;;;;;;33.10;31.30;;;;;;;;;;5077915;28;20756;-87
2023/11/29 12:59:26;;;;;;;35.70;33.88;;;;;;;;;;5076904;28;20200;-88
2023/11/29 13:01:53;;;;;;;29.17;27.58;;;;;;;;;;5075727;28;20227;-87
2023/11/29 13:04:22;;;;;;;30.05;28.45;;;;;;;;;;5076299;28;20211;-84
2023/11/29 13:06:49;;;;;;;29.88;28.20;;;;;;;;;;5075987;28;20310;-87
2023/11/29 13:09:17;;;;;;;29.35;27.65;;;;;;;;;;5076663;28;20199;-87
2023/11/29 13:11:44;;;;;;;31.27;29.17;;;;;;;;;;5076882;28;20242;-87
2023/11/29 13:14:13;;;;;;;26.92;25.52;;;;;;;;;;5075203;28;20207;-86
2023/11/29 13:16:40;;;;;;;27.90;26.30;;;;;;;;;;5076120;28;20220;-88
2023/11/29 13:19:07;;;;;;;24.70;23.30;;;;;;;;;;5075944;28;20207;-88
2023/11/29 13:21:36;;;;;;;25.55;24.08;;;;;;;;;;5065417;28;20614;-87
2023/11/29 13:24:03;;;;;;;24.88;23.67;;;;;;;;;;5058591;28;20210;-86
2023/11/29 13:26:30;;;;;;;24.00;22.70;;;;;;;;;;5058559;28;20232;-86
2023/11/29 13:28:57;;;;;;;25.75;24.05;;;;;;;;;;5059104;28;20204;-87
2023/11/29 13:31:26;;;;;;;24.00;22.42;;;;;;;;;;5059647;28;20219;-86
2023/11/29 13:33:53;;;;;;;24.20;22.75;;;;;;;;;;5058715;28;20200;-87
2023/11/29 13:36:20;;;;;;;24.15;22.65;;;;;;;;;;5059391;28;20236;-87
2023/11/29 13:38:48;;;;;;;25.38;23.38;;;;;;;;;;5059253;28;20204;-87
2023/11/29 13:41:16;;;;;;;24.95;23.27;;;;;;;;;;5057413;28;20594;-87
2023/11/29 13:43:43;;;;;;;23.70;22.38;;;;;;;;;;5058322;28;20227;-87
2023/11/29 13:46:10;;;;;;;23.45;22.15;;;;;;;;;;5058724;28;20223;-87
2023/11/29 13:48:38;;;;;;;24.17;22.75;;;;;;;;;;5059306;28;20196;-86
2023/11/29 13:51:05;;;;;;;24.13;22.73;;;;;;;;;;5059614;28;20219;-85
2023/11/29 13:53:33;;;;;;;24.98;23.55;;;;;;;;;;5069721;28;20200;-81
2023/11/29 13:56:00;;;;;;;26.67;24.98;;;;;;;;;;5076026;28;20200;-87
2023/11/29 13:58:28;;;;;;;24.10;22.70;;;;;;;;;;5074735;28;20215;-87
2023/11/29 14:00:56;;;;;;;23.92;22.33;;;;;;;;;;5060184;28;20236;-88
2023/11/29 14:03:23;;;;;;;20.48;19.38;;;;;;;;;;5064047;28;20212;-87
2023/11/29 14:05:52;;;;;;;22.10;20.90;;;;;;;;;;5071415;28;20246;-87
2023/11/29 14:08:19;;;;;;;21.58;20.38;;;;;;;;;;5067396;28;20231;-86
2023/11/29 14:10:46;;;;;;;20.63;19.55;;;;;;;;;;5083061;28;20203;-86
2023/11/29 14:13:13;;;;;;;24.10;22.25;;;;;;;;;;5079806;28;20216;-82
2023/11/29 14:15:40;;;;;;;24.33;22.60;;;;;;;;;;5083532;28;20222;-83
2023/11/29 14:18:07;;;;;;;23.38;21.95;;;;;;;;;;5085582;28;20238;-83
2023/11/29 14:20:34;;;;;;;23.75;22.15;;;;;;;;;;5085439;28;20199;-84
2023/11/29 14:23:03;;;;;;;24.92;23.33;;;;;;;;;;5078601;28;20203;-84